Aérodrome :
LOGIN :

S'inscrire | Disclaimer

   EN    FR    IT 

 










Légende :    VFR   VFR Marginal   IFR   IFR Intensif   IFR Très Intensif
Visi : 
Plafond : 
>= 8 km
>= 3000ft
5 à 8 km
1000 à 3000 ft
1500m à 5 km
500 à 1000 ft
800 à 1500m
200 à 500 ft
< 800m
< 200 ft
Symboles :   Orages  Brouillard  Fortes neiges  Fortes précipitations  Vent > 20 kt
SIGMETs :   Divers  Orages  Givrage  Turbulence  Onde Orograph.  Cendres Volcan.






- Altitude de l'aérodrome : 1411 ft
- Code IATA : GVA


LSGG - Genève Cointrin

DERNIER METAR :
  • 291850Z 34001KT 9999 BKN025 00/M04 Q1027 NOSIG

METARs EXPIRÉS :
  • 291820Z 32001KT 9999 BKN025 00/M05 Q1027 NOSIG
  • 291750Z 35001KT 9999 BKN026 01/M05 Q1027 NOSIG
  • 291720Z 33001KT 9999 BKN026 01/M04 Q1027 NOSIG
  • 291650Z 03002KT 9999 BKN026 02/M05 Q1027 NOSIG
  • 291620Z 08002KT 9999 BKN026 02/M05 Q1026 NOSIG

TAF TAF LSGG
Valide du 29 à 18h jusqu'au 31 à 00h UTC


291725Z 2918/3024 VRB02KT 9999 BKN025 TX04/3015Z TNM03/3006Z
BECMG 3009/3012 SCT025
ATIS : +41 22 417 40 81



MET'MAP, la Météo Aéronautique d'un coup d'oeil ! - Copyright ORBIFLY Décembre 2007 - Disclaimer

ORBIFLY MET'MAP TEAM :

Programmation & Développement : Alexandra Zaïnal
Sur une idée originale de : Baudouin d'Aumeries
Soutien technique & logistique : Manuel Goepfert
Assistance : Marc-Olivier Méhu




SOURCES & CREDITS :

   NOAA